sensor_id;sensor_type;location;lat;lon;timestamp;P1;durP1;ratioP1;P2;durP2;ratioP2
3261;SDS011;1643;47.746;9.000;2022-09-09T00:09:35;5.33;;;1.50;;
3261;SDS011;1643;47.746;9.000;2022-09-09T00:12:27;1.70;;;1.07;;
3261;SDS011;1643;47.746;9.000;2022-09-09T00:14:59;2.87;;;1.20;;
3261;SDS011;1643;47.746;9.000;2022-09-09T00:20:35;2.10;;;1.00;;
3261;SDS011;1643;47.746;9.000;2022-09-09T00:23:12;4.17;;;1.37;;
3261;SDS011;1643;47.746;9.000;2022-09-09T00:28:20;4.30;;;1.47;;
3261;SDS011;1643;47.746;9.000;2022-09-09T00:30:50;1.90;;;1.30;;
3261;SDS011;1643;47.746;9.000;2022-09-09T00:33:17;4.97;;;1.20;;
3261;SDS011;1643;47.746;9.000;2022-09-09T00:35:48;1.30;;;1.10;;
3261;SDS011;1643;47.746;9.000;2022-09-09T00:38:23;3.10;;;1.70;;
3261;SDS011;1643;47.746;9.000;2022-09-09T00:40:53;2.30;;;1.17;;
3261;SDS011;1643;47.746;9.000;2022-09-09T00:46:05;6.10;;;1.87;;
3261;SDS011;1643;47.746;9.000;2022-09-09T00:54:27;1.77;;;1.53;;
3261;SDS011;1643;47.746;9.000;2022-09-09T01:03:30;1.63;;;1.40;;
3261;SDS011;1643;47.746;9.000;2022-09-09T01:05:51;4.03;;;1.37;;
3261;SDS011;1643;47.746;9.000;2022-09-09T01:11:22;1.27;;;1.17;;
3261;SDS011;1643;47.746;9.000;2022-09-09T01:14:41;1.53;;;1.43;;
3261;SDS011;1643;47.746;9.000;2022-09-09T01:16:59;1.60;;;1.23;;
3261;SDS011;1643;47.746;9.000;2022-09-09T01:19:39;2.30;;;1.43;;
3261;SDS011;1643;47.746;9.000;2022-09-09T01:22:33;2.97;;;1.10;;
3261;SDS011;1643;47.746;9.000;2022-09-09T01:27:42;1.73;;;1.30;;
3261;SDS011;1643;47.746;9.000;2022-09-09T01:30:14;1.90;;;1.23;;
3261;SDS011;1643;47.746;9.000;2022-09-09T01:32:43;1.10;;;1.00;;
3261;SDS011;1643;47.746;9.000;2022-09-09T01:37:55;1.57;;;1.00;;
3261;SDS011;1643;47.746;9.000;2022-09-09T01:40:20;2.50;;;1.40;;
3261;SDS011;1643;47.746;9.000;2022-09-09T01:42:46;2.20;;;1.20;;
3261;SDS011;1643;47.746;9.000;2022-09-09T01:45:12;1.63;;;1.53;;
3261;SDS011;1643;47.746;9.000;2022-09-09T01:47:38;1.83;;;1.10;;
3261;SDS011;1643;47.746;9.000;2022-09-09T01:50:03;7.83;;;1.30;;
3261;SDS011;1643;47.746;9.000;2022-09-09T01:52:30;4.67;;;1.30;;
3261;SDS011;1643;47.746;9.000;2022-09-09T01:55:04;2.70;;;1.40;;
3261;SDS011;1643;47.746;9.000;2022-09-09T01:57:33;5.17;;;1.53;;
3261;SDS011;1643;47.746;9.000;2022-09-09T02:00:10;3.20;;;1.60;;
3261;SDS011;1643;47.746;9.000;2022-09-09T02:05:40;2.13;;;1.37;;
3261;SDS011;1643;47.746;9.000;2022-09-09T02:08:15;1.83;;;1.47;;
3261;SDS011;1643;47.746;9.000;2022-09-09T02:13:26;2.67;;;1.60;;
3261;SDS011;1643;47.746;9.000;2022-09-09T02:16:14;2.70;;;1.73;;
3261;SDS011;1643;47.746;9.000;2022-09-09T02:21:26;4.87;;;1.77;;
3261;SDS011;1643;47.746;9.000;2022-09-09T02:23:53;5.33;;;2.33;;
3261;SDS011;1643;47.746;9.000;2022-09-09T02:26:22;2.90;;;2.07;;
3261;SDS011;1643;47.746;9.000;2022-09-09T02:28:50;3.50;;;1.97;;
3261;SDS011;1643;47.746;9.000;2022-09-09T02:31:18;2.10;;;1.90;;
3261;SDS011;1643;47.746;9.000;2022-09-09T02:33:47;1.70;;;1.60;;
3261;SDS011;1643;47.746;9.000;2022-09-09T02:36:19;4.83;;;2.43;;
3261;SDS011;1643;47.746;9.000;2022-09-09T02:38:48;1.93;;;1.73;;
3261;SDS011;1643;47.746;9.000;2022-09-09T02:41:20;1.63;;;1.53;;
3261;SDS011;1643;47.746;9.000;2022-09-09T02:43:51;2.17;;;1.90;;
3261;SDS011;1643;47.746;9.000;2022-09-09T02:49:02;2.13;;;1.60;;
3261;SDS011;1643;47.746;9.000;2022-09-09T02:56:48;2.80;;;1.87;;
3261;SDS011;1643;47.746;9.000;2022-09-09T02:59:19;5.23;;;2.03;;
3261;SDS011;1643;47.746;9.000;2022-09-09T03:01:46;3.83;;;1.80;;
3261;SDS011;1643;47.746;9.000;2022-09-09T03:04:12;3.53;;;1.40;;
3261;SDS011;1643;47.746;9.000;2022-09-09T03:06:38;4.90;;;2.07;;
3261;SDS011;1643;47.746;9.000;2022-09-09T03:09:03;4.50;;;1.97;;
3261;SDS011;1643;47.746;9.000;2022-09-09T03:11:29;3.30;;;1.60;;
3261;SDS011;1643;47.746;9.000;2022-09-09T03:13:55;2.70;;;1.80;;
3261;SDS011;1643;47.746;9.000;2022-09-09T03:16:23;2.90;;;1.80;;
3261;SDS011;1643;47.746;9.000;2022-09-09T03:18:49;2.85;;;1.90;;
3261;SDS011;1643;47.746;9.000;2022-09-09T03:21:14;4.70;;;2.03;;
3261;SDS011;1643;47.746;9.000;2022-09-09T03:23:40;2.37;;;1.30;;
3261;SDS011;1643;47.746;9.000;2022-09-09T03:26:07;2.90;;;1.63;;
3261;SDS011;1643;47.746;9.000;2022-09-09T03:28:33;1.83;;;1.40;;
3261;SDS011;1643;47.746;9.000;2022-09-09T03:31:05;3.30;;;1.50;;
3261;SDS011;1643;47.746;9.000;2022-09-09T03:33:31;1.40;;;1.30;;
3261;SDS011;1643;47.746;9.000;2022-09-09T03:35:56;3.97;;;1.88;;
3261;SDS011;1643;47.746;9.000;2022-09-09T03:38:23;2.30;;;1.80;;
3261;SDS011;1643;47.746;9.000;2022-09-09T03:40:52;4.70;;;1.80;;
3261;SDS011;1643;47.746;9.000;2022-09-09T03:43:22;3.70;;;1.80;;
3261;SDS011;1643;47.746;9.000;2022-09-09T03:45:48;3.75;;;1.60;;
3261;SDS011;1643;47.746;9.000;2022-09-09T03:48:15;3.83;;;1.60;;
3261;SDS011;1643;47.746;9.000;2022-09-09T03:50:45;5.10;;;1.90;;
3261;SDS011;1643;47.746;9.000;2022-09-09T03:53:12;3.03;;;1.67;;
3261;SDS011;1643;47.746;9.000;2022-09-09T03:55:37;6.17;;;2.07;;
3261;SDS011;1643;47.746;9.000;2022-09-09T03:58:03;3.13;;;2.20;;
3261;SDS011;1643;47.746;9.000;2022-09-09T04:00:28;1.92;;;1.63;;
3261;SDS011;1643;47.746;9.000;2022-09-09T04:02:55;2.40;;;1.70;;
3261;SDS011;1643;47.746;9.000;2022-09-09T04:05:22;2.38;;;1.52;;
3261;SDS011;1643;47.746;9.000;2022-09-09T04:07:48;3.90;;;1.80;;
3261;SDS011;1643;47.746;9.000;2022-09-09T04:10:13;2.00;;;1.70;;
3261;SDS011;1643;47.746;9.000;2022-09-09T04:12:40;4.10;;;1.70;;
3261;SDS011;1643;47.746;9.000;2022-09-09T04:15:06;6.13;;;1.60;;
3261;SDS011;1643;47.746;9.000;2022-09-09T04:17:32;2.17;;;1.43;;
3261;SDS011;1643;47.746;9.000;2022-09-09T04:19:58;6.03;;;2.00;;
3261;SDS011;1643;47.746;9.000;2022-09-09T04:22:23;1.60;;;1.27;;
3261;SDS011;1643;47.746;9.000;2022-09-09T04:24:49;1.73;;;1.40;;
3261;SDS011;1643;47.746;9.000;2022-09-09T04:27:14;1.97;;;1.70;;
3261;SDS011;1643;47.746;9.000;2022-09-09T04:29:40;1.60;;;1.50;;
3261;SDS011;1643;47.746;9.000;2022-09-09T04:32:06;1.53;;;1.43;;
3261;SDS011;1643;47.746;9.000;2022-09-09T04:34:31;2.77;;;1.60;;
3261;SDS011;1643;47.746;9.000;2022-09-09T04:36:57;2.30;;;1.50;;
3261;SDS011;1643;47.746;9.000;2022-09-09T04:39:25;3.60;;;1.57;;
3261;SDS011;1643;47.746;9.000;2022-09-09T04:41:51;1.90;;;1.40;;
3261;SDS011;1643;47.746;9.000;2022-09-09T04:44:16;4.53;;;2.00;;
3261;SDS011;1643;47.746;9.000;2022-09-09T04:46:42;3.73;;;1.93;;
3261;SDS011;1643;47.746;9.000;2022-09-09T04:49:08;2.53;;;2.03;;
3261;SDS011;1643;47.746;9.000;2022-09-09T04:51:33;1.87;;;1.70;;
3261;SDS011;1643;47.746;9.000;2022-09-09T04:53:59;2.37;;;2.10;;
3261;SDS011;1643;47.746;9.000;2022-09-09T04:56:24;3.37;;;2.07;;
3261;SDS011;1643;47.746;9.000;2022-09-09T04:58:53;6.63;;;1.90;;
3261;SDS011;1643;47.746;9.000;2022-09-09T05:01:20;2.63;;;1.90;;
3261;SDS011;1643;47.746;9.000;2022-09-09T05:03:46;2.03;;;1.83;;
3261;SDS011;1643;47.746;9.000;2022-09-09T05:06:13;4.17;;;2.53;;
3261;SDS011;1643;47.746;9.000;2022-09-09T05:08:41;2.93;;;1.53;;
3261;SDS011;1643;47.746;9.000;2022-09-09T05:11:23;1.40;;;1.30;;
3261;SDS011;1643;47.746;9.000;2022-09-09T05:13:53;3.27;;;1.60;;
3261;SDS011;1643;47.746;9.000;2022-09-09T05:16:19;1.57;;;1.40;;
3261;SDS011;1643;47.746;9.000;2022-09-09T05:18:46;2.27;;;1.50;;
3261;SDS011;1643;47.746;9.000;2022-09-09T05:21:12;1.83;;;1.70;;
3261;SDS011;1643;47.746;9.000;2022-09-09T05:23:39;3.60;;;1.53;;
3261;SDS011;1643;47.746;9.000;2022-09-09T05:26:05;3.17;;;1.60;;
3261;SDS011;1643;47.746;9.000;2022-09-09T05:28:33;2.50;;;1.47;;
3261;SDS011;1643;47.746;9.000;2022-09-09T05:31:04;1.93;;;1.70;;
3261;SDS011;1643;47.746;9.000;2022-09-09T05:33:33;4.73;;;1.70;;
3261;SDS011;1643;47.746;9.000;2022-09-09T05:36:03;2.30;;;1.50;;
3261;SDS011;1643;47.746;9.000;2022-09-09T05:38:32;6.77;;;1.60;;
3261;SDS011;1643;47.746;9.000;2022-09-09T05:40:59;3.00;;;1.73;;
3261;SDS011;1643;47.746;9.000;2022-09-09T05:43:25;3.07;;;1.60;;
3261;SDS011;1643;47.746;9.000;2022-09-09T05:45:58;1.73;;;1.60;;
3261;SDS011;1643;47.746;9.000;2022-09-09T05:48:29;3.50;;;1.57;;
3261;SDS011;1643;47.746;9.000;2022-09-09T05:51:20;2.80;;;1.77;;
3261;SDS011;1643;47.746;9.000;2022-09-09T05:53:49;2.00;;;1.53;;
3261;SDS011;1643;47.746;9.000;2022-09-09T05:56:19;3.90;;;1.60;;
3261;SDS011;1643;47.746;9.000;2022-09-09T05:58:50;1.90;;;1.80;;
3261;SDS011;1643;47.746;9.000;2022-09-09T06:01:19;4.00;;;1.30;;
3261;SDS011;1643;47.746;9.000;2022-09-09T06:03:56;1.57;;;1.37;;
3261;SDS011;1643;47.746;9.000;2022-09-09T06:06:23;4.20;;;1.87;;
3261;SDS011;1643;47.746;9.000;2022-09-09T06:08:54;3.80;;;1.53;;
3261;SDS011;1643;47.746;9.000;2022-09-09T06:11:27;1.70;;;1.53;;
3261;SDS011;1643;47.746;9.000;2022-09-09T06:13:58;2.03;;;1.67;;
3261;SDS011;1643;47.746;9.000;2022-09-09T06:16:25;2.60;;;1.70;;
3261;SDS011;1643;47.746;9.000;2022-09-09T06:18:52;2.07;;;1.50;;
3261;SDS011;1643;47.746;9.000;2022-09-09T06:21:29;2.90;;;1.57;;
3261;SDS011;1643;47.746;9.000;2022-09-09T06:23:57;1.93;;;1.80;;
3261;SDS011;1643;47.746;9.000;2022-09-09T06:26:24;2.27;;;1.57;;
3261;SDS011;1643;47.746;9.000;2022-09-09T06:28:51;2.60;;;1.40;;
3261;SDS011;1643;47.746;9.000;2022-09-09T06:31:22;1.83;;;1.63;;
3261;SDS011;1643;47.746;9.000;2022-09-09T06:33:50;3.93;;;1.40;;
3261;SDS011;1643;47.746;9.000;2022-09-09T06:36:20;1.43;;;1.30;;
3261;SDS011;1643;47.746;9.000;2022-09-09T06:38:47;3.47;;;1.50;;
3261;SDS011;1643;47.746;9.000;2022-09-09T06:41:14;1.40;;;1.30;;
3261;SDS011;1643;47.746;9.000;2022-09-09T06:43:41;1.77;;;1.40;;
3261;SDS011;1643;47.746;9.000;2022-09-09T06:46:12;2.77;;;1.80;;
3261;SDS011;1643;47.746;9.000;2022-09-09T06:48:45;1.70;;;1.50;;
3261;SDS011;1643;47.746;9.000;2022-09-09T06:51:12;1.40;;;1.33;;
3261;SDS011;1643;47.746;9.000;2022-09-09T06:53:41;4.70;;;2.10;;
3261;SDS011;1643;47.746;9.000;2022-09-09T06:58:42;1.93;;;1.57;;
3261;SDS011;1643;47.746;9.000;2022-09-09T07:01:09;1.70;;;1.60;;
3261;SDS011;1643;47.746;9.000;2022-09-09T07:03:40;1.60;;;1.50;;
3261;SDS011;1643;47.746;9.000;2022-09-09T07:06:07;1.37;;;1.27;;
3261;SDS011;1643;47.746;9.000;2022-09-09T07:08:39;1.50;;;1.40;;
3261;SDS011;1643;47.746;9.000;2022-09-09T07:11:05;1.37;;;1.27;;
3261;SDS011;1643;47.746;9.000;2022-09-09T07:13:33;1.30;;;1.20;;
3261;SDS011;1643;47.746;9.000;2022-09-09T07:16:06;2.30;;;1.13;;
3261;SDS011;1643;47.746;9.000;2022-09-09T07:18:35;1.60;;;1.50;;
3261;SDS011;1643;47.746;9.000;2022-09-09T07:21:01;2.23;;;1.77;;
3261;SDS011;1643;47.746;9.000;2022-09-09T07:23:28;2.40;;;1.23;;
3261;SDS011;1643;47.746;9.000;2022-09-09T07:25:55;4.83;;;1.80;;
3261;SDS011;1643;47.746;9.000;2022-09-09T07:28:24;1.37;;;1.27;;
3261;SDS011;1643;47.746;9.000;2022-09-09T07:30:58;1.87;;;1.50;;
3261;SDS011;1643;47.746;9.000;2022-09-09T07:33:27;1.57;;;1.47;;
3261;SDS011;1643;47.746;9.000;2022-09-09T07:36:01;1.63;;;1.13;;
3261;SDS011;1643;47.746;9.000;2022-09-09T07:38:28;1.87;;;1.20;;
3261;SDS011;1643;47.746;9.000;2022-09-09T07:41:02;1.77;;;1.30;;
3261;SDS011;1643;47.746;9.000;2022-09-09T07:43:31;1.20;;;1.10;;
3261;SDS011;1643;47.746;9.000;2022-09-09T07:45:58;1.30;;;1.20;;
3261;SDS011;1643;47.746;9.000;2022-09-09T07:48:26;1.57;;;1.37;;
3261;SDS011;1643;47.746;9.000;2022-09-09T07:50:52;1.40;;;1.30;;
3261;SDS011;1643;47.746;9.000;2022-09-09T07:53:19;1.40;;;1.30;;
3261;SDS011;1643;47.746;9.000;2022-09-09T07:55:45;1.40;;;1.27;;
3261;SDS011;1643;47.746;9.000;2022-09-09T07:58:10;1.67;;;1.10;;
3261;SDS011;1643;47.746;9.000;2022-09-09T08:00:36;5.20;;;1.40;;
3261;SDS011;1643;47.746;9.000;2022-09-09T08:03:01;1.10;;;1.00;;
3261;SDS011;1643;47.746;9.000;2022-09-09T08:05:28;1.37;;;1.27;;
3261;SDS011;1643;47.746;9.000;2022-09-09T08:07:54;1.57;;;1.40;;
3261;SDS011;1643;47.746;9.000;2022-09-09T08:10:19;1.93;;;1.40;;
3261;SDS011;1643;47.746;9.000;2022-09-09T08:12:45;1.10;;;1.00;;
3261;SDS011;1643;47.746;9.000;2022-09-09T08:15:11;1.10;;;1.00;;
3261;SDS011;1643;47.746;9.000;2022-09-09T08:17:37;1.10;;;1.00;;
3261;SDS011;1643;47.746;9.000;2022-09-09T08:20:03;3.27;;;1.40;;
3261;SDS011;1643;47.746;9.000;2022-09-09T08:22:30;1.00;;;0.90;;
3261;SDS011;1643;47.746;9.000;2022-09-09T08:24:56;1.10;;;0.93;;
3261;SDS011;1643;47.746;9.000;2022-09-09T08:27:22;3.23;;;1.20;;
3261;SDS011;1643;47.746;9.000;2022-09-09T08:29:48;3.10;;;1.30;;
3261;SDS011;1643;47.746;9.000;2022-09-09T08:32:13;2.40;;;1.07;;
3261;SDS011;1643;47.746;9.000;2022-09-09T08:34:39;3.63;;;1.40;;
3261;SDS011;1643;47.746;9.000;2022-09-09T08:37:06;1.53;;;1.23;;
3261;SDS011;1643;47.746;9.000;2022-09-09T08:39:31;1.37;;;0.93;;
3261;SDS011;1643;47.746;9.000;2022-09-09T08:50:32;1.10;;;0.80;;
3261;SDS011;1643;47.746;9.000;2022-09-09T08:58:09;9.17;;;1.40;;
3261;SDS011;1643;47.746;9.000;2022-09-09T09:12:15;1.97;;;1.27;;
3261;SDS011;1643;47.746;9.000;2022-09-09T09:14:46;1.37;;;1.03;;
3261;SDS011;1643;47.746;9.000;2022-09-09T09:17:14;3.90;;;1.50;;
3261;SDS011;1643;47.746;9.000;2022-09-09T09:19:40;5.83;;;1.20;;
3261;SDS011;1643;47.746;9.000;2022-09-09T09:25:39;1.43;;;1.00;;
3261;SDS011;1643;47.746;9.000;2022-09-09T09:27:49;4.53;;;1.43;;
3261;SDS011;1643;47.746;9.000;2022-09-09T09:30:26;1.57;;;1.30;;
3261;SDS011;1643;47.746;9.000;2022-09-09T09:33:02;2.03;;;1.40;;
3261;SDS011;1643;47.746;9.000;2022-09-09T09:35:31;2.33;;;1.10;;
3261;SDS011;1643;47.746;9.000;2022-09-09T09:37:57;2.23;;;1.20;;
3261;SDS011;1643;47.746;9.000;2022-09-09T09:40:25;1.33;;;0.97;;
3261;SDS011;1643;47.746;9.000;2022-09-09T09:42:56;4.97;;;1.47;;
3261;SDS011;1643;47.746;9.000;2022-09-09T09:48:00;1.07;;;0.97;;
3261;SDS011;1643;47.746;9.000;2022-09-09T09:50:28;1.90;;;1.40;;
3261;SDS011;1643;47.746;9.000;2022-09-09T09:52:58;0.97;;;0.87;;
3261;SDS011;1643;47.746;9.000;2022-09-09T09:55:28;2.93;;;1.30;;
3261;SDS011;1643;47.746;9.000;2022-09-09T09:58:03;5.90;;;1.90;;
3261;SDS011;1643;47.746;9.000;2022-09-09T10:00:31;2.50;;;1.30;;
3261;SDS011;1643;47.746;9.000;2022-09-09T10:02:59;3.37;;;1.67;;
3261;SDS011;1643;47.746;9.000;2022-09-09T10:05:27;2.93;;;1.10;;
3261;SDS011;1643;47.746;9.000;2022-09-09T10:08:01;1.93;;;1.30;;
3261;SDS011;1643;47.746;9.000;2022-09-09T10:10:58;2.57;;;1.50;;
3261;SDS011;1643;47.746;9.000;2022-09-09T10:13:44;8.17;;;2.00;;
3261;SDS011;1643;47.746;9.000;2022-09-09T10:19:15;1.63;;;1.07;;
3261;SDS011;1643;47.746;9.000;2022-09-09T10:33:59;1.63;;;1.20;;
3261;SDS011;1643;47.746;9.000;2022-09-09T10:36:31;2.50;;;1.30;;
3261;SDS011;1643;47.746;9.000;2022-09-09T10:39:22;1.30;;;1.20;;
3261;SDS011;1643;47.746;9.000;2022-09-09T10:41:54;4.67;;;1.43;;
3261;SDS011;1643;47.746;9.000;2022-09-09T10:57:48;3.47;;;1.33;;
3261;SDS011;1643;47.746;9.000;2022-09-09T11:00:17;1.73;;;1.63;;
3261;SDS011;1643;47.746;9.000;2022-09-09T11:02:49;2.60;;;1.20;;
3261;SDS011;1643;47.746;9.000;2022-09-09T11:05:26;1.83;;;1.17;;
3261;SDS011;1643;47.746;9.000;2022-09-09T11:16:12;4.80;;;1.10;;
3261;SDS011;1643;47.746;9.000;2022-09-09T11:18:43;1.87;;;1.17;;
3261;SDS011;1643;47.746;9.000;2022-09-09T11:21:34;1.33;;;0.90;;
3261;SDS011;1643;47.746;9.000;2022-09-09T11:24:44;6.20;;;1.50;;
3261;SDS011;1643;47.746;9.000;2022-09-09T11:27:30;1.90;;;1.07;;
3261;SDS011;1643;47.746;9.000;2022-09-09T11:30:19;1.40;;;1.30;;
3261;SDS011;1643;47.746;9.000;2022-09-09T11:33:08;1.57;;;0.90;;
3261;SDS011;1643;47.746;9.000;2022-09-09T11:38:44;5.60;;;1.53;;
3261;SDS011;1643;47.746;9.000;2022-09-09T11:41:15;1.73;;;1.20;;
3261;SDS011;1643;47.746;9.000;2022-09-09T11:43:46;6.73;;;0.90;;
3261;SDS011;1643;47.746;9.000;2022-09-09T11:46:22;3.20;;;1.20;;
3261;SDS011;1643;47.746;9.000;2022-09-09T11:49:03;4.33;;;1.30;;
3261;SDS011;1643;47.746;9.000;2022-09-09T11:51:31;4.53;;;1.03;;
3261;SDS011;1643;47.746;9.000;2022-09-09T11:53:59;2.37;;;1.00;;
3261;SDS011;1643;47.746;9.000;2022-09-09T11:56:45;1.00;;;0.90;;
3261;SDS011;1643;47.746;9.000;2022-09-09T11:59:21;1.70;;;1.10;;
3261;SDS011;1643;47.746;9.000;2022-09-09T12:02:02;1.97;;;1.00;;
3261;SDS011;1643;47.746;9.000;2022-09-09T12:04:29;3.13;;;1.40;;
3261;SDS011;1643;47.746;9.000;2022-09-09T12:07:05;3.43;;;1.30;;
3261;SDS011;1643;47.746;9.000;2022-09-09T12:12:38;2.03;;;1.00;;
3261;SDS011;1643;47.746;9.000;2022-09-09T12:17:36;2.00;;;1.33;;
3261;SDS011;1643;47.746;9.000;2022-09-09T12:31:18;2.53;;;1.13;;
3261;SDS011;1643;47.746;9.000;2022-09-09T12:33:49;4.53;;;1.33;;
3261;SDS011;1643;47.746;9.000;2022-09-09T12:36:29;2.23;;;1.57;;
3261;SDS011;1643;47.746;9.000;2022-09-09T12:38:58;3.57;;;1.10;;
3261;SDS011;1643;47.746;9.000;2022-09-09T12:41:35;4.30;;;1.40;;
3261;SDS011;1643;47.746;9.000;2022-09-09T12:44:05;2.57;;;1.30;;
3261;SDS011;1643;47.746;9.000;2022-09-09T12:46:35;2.23;;;1.30;;
3261;SDS011;1643;47.746;9.000;2022-09-09T12:49:05;2.43;;;1.30;;
3261;SDS011;1643;47.746;9.000;2022-09-09T12:51:49;1.50;;;1.10;;
3261;SDS011;1643;47.746;9.000;2022-09-09T12:54:15;1.27;;;1.00;;
3261;SDS011;1643;47.746;9.000;2022-09-09T12:56:44;2.73;;;1.07;;
3261;SDS011;1643;47.746;9.000;2022-09-09T13:00:03;3.73;;;1.10;;
3261;SDS011;1643;47.746;9.000;2022-09-09T13:02:01;1.20;;;1.07;;
3261;SDS011;1643;47.746;9.000;2022-09-09T13:04:27;1.83;;;1.30;;
3261;SDS011;1643;47.746;9.000;2022-09-09T13:06:53;2.70;;;0.93;;
3261;SDS011;1643;47.746;9.000;2022-09-09T13:09:19;2.40;;;1.00;;
3261;SDS011;1643;47.746;9.000;2022-09-09T13:11:54;2.10;;;1.67;;
3261;SDS011;1643;47.746;9.000;2022-09-09T13:14:29;7.43;;;1.10;;
3261;SDS011;1643;47.746;9.000;2022-09-09T13:17:00;1.20;;;1.10;;
3261;SDS011;1643;47.746;9.000;2022-09-09T13:19:29;1.63;;;1.20;;
3261;SDS011;1643;47.746;9.000;2022-09-09T13:21:59;2.60;;;1.47;;
3261;SDS011;1643;47.746;9.000;2022-09-09T13:24:37;4.70;;;1.80;;
3261;SDS011;1643;47.746;9.000;2022-09-09T13:27:04;3.50;;;1.07;;
3261;SDS011;1643;47.746;9.000;2022-09-09T13:29:51;4.27;;;1.33;;
3261;SDS011;1643;47.746;9.000;2022-09-09T13:32:21;2.07;;;1.00;;
3261;SDS011;1643;47.746;9.000;2022-09-09T13:34:52;1.30;;;1.03;;
3261;SDS011;1643;47.746;9.000;2022-09-09T13:37:35;1.53;;;1.10;;
3261;SDS011;1643;47.746;9.000;2022-09-09T13:40:03;1.60;;;1.20;;
3261;SDS011;1643;47.746;9.000;2022-09-09T13:42:32;1.33;;;0.93;;
3261;SDS011;1643;47.746;9.000;2022-09-09T13:45:01;1.57;;;1.00;;
3261;SDS011;1643;47.746;9.000;2022-09-09T13:47:34;1.93;;;1.10;;
3261;SDS011;1643;47.746;9.000;2022-09-09T13:52:56;2.37;;;1.30;;
3261;SDS011;1643;47.746;9.000;2022-09-09T13:55:24;1.27;;;1.00;;
3261;SDS011;1643;47.746;9.000;2022-09-09T13:57:58;1.83;;;1.10;;
3261;SDS011;1643;47.746;9.000;2022-09-09T14:00:31;1.33;;;1.00;;
3261;SDS011;1643;47.746;9.000;2022-09-09T14:02:59;1.77;;;1.03;;
3261;SDS011;1643;47.746;9.000;2022-09-09T14:05:28;1.17;;;1.00;;
3261;SDS011;1643;47.746;9.000;2022-09-09T14:07:57;2.40;;;1.00;;
3261;SDS011;1643;47.746;9.000;2022-09-09T14:10:23;1.10;;;0.87;;
3261;SDS011;1643;47.746;9.000;2022-09-09T14:12:48;1.67;;;1.03;;
3261;SDS011;1643;47.746;9.000;2022-09-09T14:15:14;1.80;;;1.10;;
3261;SDS011;1643;47.746;9.000;2022-09-09T14:17:40;1.93;;;0.97;;
3261;SDS011;1643;47.746;9.000;2022-09-09T14:20:06;1.50;;;1.00;;
3261;SDS011;1643;47.746;9.000;2022-09-09T14:22:34;0.97;;;0.93;;
3261;SDS011;1643;47.746;9.000;2022-09-09T14:25:00;1.20;;;1.10;;
3261;SDS011;1643;47.746;9.000;2022-09-09T14:27:26;1.73;;;1.33;;
3261;SDS011;1643;47.746;9.000;2022-09-09T14:29:52;1.53;;;0.90;;
3261;SDS011;1643;47.746;9.000;2022-09-09T14:32:18;1.30;;;1.10;;
3261;SDS011;1643;47.746;9.000;2022-09-09T14:34:44;1.50;;;0.90;;
3261;SDS011;1643;47.746;9.000;2022-09-09T14:37:10;2.63;;;1.23;;
3261;SDS011;1643;47.746;9.000;2022-09-09T14:39:35;1.57;;;1.10;;
3261;SDS011;1643;47.746;9.000;2022-09-09T14:42:01;1.10;;;0.90;;
3261;SDS011;1643;47.746;9.000;2022-09-09T14:44:27;2.10;;;1.10;;
3261;SDS011;1643;47.746;9.000;2022-09-09T14:46:53;3.63;;;1.20;;
3261;SDS011;1643;47.746;9.000;2022-09-09T14:49:20;2.73;;;0.90;;
3261;SDS011;1643;47.746;9.000;2022-09-09T14:51:45;3.33;;;1.27;;
3261;SDS011;1643;47.746;9.000;2022-09-09T14:54:11;4.30;;;0.90;;
3261;SDS011;1643;47.746;9.000;2022-09-09T14:56:37;2.50;;;1.10;;
3261;SDS011;1643;47.746;9.000;2022-09-09T14:59:03;3.53;;;1.30;;
3261;SDS011;1643;47.746;9.000;2022-09-09T15:01:29;1.50;;;1.00;;
3261;SDS011;1643;47.746;9.000;2022-09-09T15:03:59;5.47;;;1.00;;
3261;SDS011;1643;47.746;9.000;2022-09-09T15:06:28;2.00;;;1.40;;
3261;SDS011;1643;47.746;9.000;2022-09-09T15:08:56;3.00;;;1.17;;
3261;SDS011;1643;47.746;9.000;2022-09-09T15:11:23;1.50;;;1.07;;
3261;SDS011;1643;47.746;9.000;2022-09-09T15:13:50;1.83;;;0.90;;
3261;SDS011;1643;47.746;9.000;2022-09-09T15:16:18;2.20;;;1.50;;
3261;SDS011;1643;47.746;9.000;2022-09-09T15:18:45;2.10;;;1.00;;
3261;SDS011;1643;47.746;9.000;2022-09-09T15:21:15;1.70;;;1.00;;
3261;SDS011;1643;47.746;9.000;2022-09-09T15:23:44;1.00;;;0.87;;
3261;SDS011;1643;47.746;9.000;2022-09-09T15:26:10;3.63;;;0.93;;
3261;SDS011;1643;47.746;9.000;2022-09-09T15:28:39;3.67;;;0.90;;
3261;SDS011;1643;47.746;9.000;2022-09-09T15:31:06;1.97;;;0.80;;
3261;SDS011;1643;47.746;9.000;2022-09-09T15:33:34;1.87;;;0.80;;
3261;SDS011;1643;47.746;9.000;2022-09-09T15:36:11;2.87;;;0.80;;
3261;SDS011;1643;47.746;9.000;2022-09-09T15:38:46;1.40;;;0.90;;
3261;SDS011;1643;47.746;9.000;2022-09-09T15:41:13;1.93;;;0.83;;
3261;SDS011;1643;47.746;9.000;2022-09-09T15:43:42;1.33;;;0.70;;
3261;SDS011;1643;47.746;9.000;2022-09-09T15:46:27;2.10;;;0.90;;
3261;SDS011;1643;47.746;9.000;2022-09-09T15:48:58;2.57;;;1.10;;
3261;SDS011;1643;47.746;9.000;2022-09-09T15:51:29;1.60;;;0.80;;
3261;SDS011;1643;47.746;9.000;2022-09-09T15:53:56;2.97;;;0.90;;
3261;SDS011;1643;47.746;9.000;2022-09-09T15:56:23;2.80;;;1.07;;
3261;SDS011;1643;47.746;9.000;2022-09-09T15:58:49;1.07;;;0.83;;
3261;SDS011;1643;47.746;9.000;2022-09-09T16:01:17;1.00;;;0.90;;
3261;SDS011;1643;47.746;9.000;2022-09-09T16:03:44;1.23;;;0.90;;
3261;SDS011;1643;47.746;9.000;2022-09-09T16:06:15;1.90;;;1.10;;
3261;SDS011;1643;47.746;9.000;2022-09-09T16:08:47;1.37;;;0.90;;
3261;SDS011;1643;47.746;9.000;2022-09-09T16:11:25;2.00;;;0.80;;
3261;SDS011;1643;47.746;9.000;2022-09-09T16:13:58;2.00;;;0.90;;
3261;SDS011;1643;47.746;9.000;2022-09-09T16:16:25;3.17;;;1.00;;
3261;SDS011;1643;47.746;9.000;2022-09-09T16:18:54;1.10;;;0.80;;
3261;SDS011;1643;47.746;9.000;2022-09-09T16:23:49;1.90;;;0.90;;
3261;SDS011;1643;47.746;9.000;2022-09-09T16:26:16;1.27;;;0.90;;
3261;SDS011;1643;47.746;9.000;2022-09-09T16:28:42;2.73;;;0.97;;
3261;SDS011;1643;47.746;9.000;2022-09-09T16:31:09;2.03;;;0.90;;
3261;SDS011;1643;47.746;9.000;2022-09-09T16:33:39;1.80;;;0.90;;
3261;SDS011;1643;47.746;9.000;2022-09-09T16:36:08;3.40;;;1.00;;
3261;SDS011;1643;47.746;9.000;2022-09-09T16:38:35;1.10;;;0.80;;
3261;SDS011;1643;47.746;9.000;2022-09-09T16:41:02;2.40;;;0.93;;
3261;SDS011;1643;47.746;9.000;2022-09-09T16:43:30;0.90;;;0.80;;
3261;SDS011;1643;47.746;9.000;2022-09-09T16:45:56;1.77;;;0.90;;
3261;SDS011;1643;47.746;9.000;2022-09-09T16:48:22;1.10;;;1.00;;
3261;SDS011;1643;47.746;9.000;2022-09-09T16:50:48;1.93;;;1.10;;
3261;SDS011;1643;47.746;9.000;2022-09-09T16:53:14;1.13;;;0.93;;
3261;SDS011;1643;47.746;9.000;2022-09-09T16:55:40;1.50;;;0.90;;
3261;SDS011;1643;47.746;9.000;2022-09-09T16:58:10;1.17;;;0.80;;
3261;SDS011;1643;47.746;9.000;2022-09-09T17:00:36;2.93;;;1.00;;
3261;SDS011;1643;47.746;9.000;2022-09-09T17:03:02;0.97;;;0.87;;
3261;SDS011;1643;47.746;9.000;2022-09-09T17:05:28;1.10;;;0.83;;
3261;SDS011;1643;47.746;9.000;2022-09-09T17:07:54;1.20;;;0.97;;
3261;SDS011;1643;47.746;9.000;2022-09-09T17:10:23;1.97;;;0.90;;
3261;SDS011;1643;47.746;9.000;2022-09-09T17:12:50;1.20;;;1.10;;
3261;SDS011;1643;47.746;9.000;2022-09-09T17:15:16;1.10;;;0.80;;
3261;SDS011;1643;47.746;9.000;2022-09-09T17:17:43;2.87;;;1.00;;
3261;SDS011;1643;47.746;9.000;2022-09-09T17:20:10;1.33;;;1.10;;
3261;SDS011;1643;47.746;9.000;2022-09-09T17:22:36;2.70;;;1.10;;
3261;SDS011;1643;47.746;9.000;2022-09-09T17:25:01;3.47;;;1.03;;
3261;SDS011;1643;47.746;9.000;2022-09-09T17:27:28;1.70;;;1.07;;
3261;SDS011;1643;47.746;9.000;2022-09-09T17:29:56;3.80;;;0.93;;
3261;SDS011;1643;47.746;9.000;2022-09-09T17:32:22;3.07;;;1.20;;
3261;SDS011;1643;47.746;9.000;2022-09-09T17:34:48;1.30;;;1.07;;
3261;SDS011;1643;47.746;9.000;2022-09-09T17:37:13;3.47;;;1.00;;
3261;SDS011;1643;47.746;9.000;2022-09-09T17:39:39;1.17;;;0.83;;
3261;SDS011;1643;47.746;9.000;2022-09-09T17:42:05;1.13;;;1.03;;
3261;SDS011;1643;47.746;9.000;2022-09-09T17:44:32;1.90;;;1.10;;
3261;SDS011;1643;47.746;9.000;2022-09-09T17:46:58;1.23;;;1.13;;
3261;SDS011;1643;47.746;9.000;2022-09-09T17:49:24;1.43;;;1.10;;
3261;SDS011;1643;47.746;9.000;2022-09-09T17:51:50;3.03;;;1.00;;
3261;SDS011;1643;47.746;9.000;2022-09-09T17:54:17;3.43;;;1.10;;
3261;SDS011;1643;47.746;9.000;2022-09-09T17:56:45;3.33;;;1.20;;
3261;SDS011;1643;47.746;9.000;2022-09-09T17:59:12;2.87;;;1.10;;